sensor_id;sensor_type;location;lat;lon;timestamp;P1;durP1;ratioP1;P2;durP2;ratioP2
69334;SDS011;56477;52.742;15.242;2022-08-04T00:00:56;7.47;;;5.00;;
69334;SDS011;56477;52.742;15.242;2022-08-04T00:03:31;6.63;;;5.77;;
69334;SDS011;56477;52.742;15.242;2022-08-04T00:11:14;5.85;;;5.07;;
69334;SDS011;56477;52.742;15.242;2022-08-04T00:13:49;7.18;;;5.25;;
69334;SDS011;56477;52.742;15.242;2022-08-04T00:16:28;5.53;;;4.93;;
69334;SDS011;56477;52.742;15.242;2022-08-04T00:18:56;9.37;;;5.40;;
69334;SDS011;56477;52.742;15.242;2022-08-04T00:21:28;8.55;;;5.40;;
69334;SDS011;56477;52.742;15.242;2022-08-04T00:23:59;8.43;;;5.30;;
69334;SDS011;56477;52.742;15.242;2022-08-04T00:26:26;7.57;;;5.20;;
69334;SDS011;56477;52.742;15.242;2022-08-04T00:28:52;10.00;;;5.85;;
69334;SDS011;56477;52.742;15.242;2022-08-04T00:31:20;8.77;;;5.40;;
69334;SDS011;56477;52.742;15.242;2022-08-04T00:33:47;8.87;;;4.60;;
69334;SDS011;56477;52.742;15.242;2022-08-04T00:36:14;7.38;;;5.38;;
69334;SDS011;56477;52.742;15.242;2022-08-04T00:38:42;7.85;;;5.28;;
69334;SDS011;56477;52.742;15.242;2022-08-04T00:46:59;6.43;;;5.30;;
69334;SDS011;56477;52.742;15.242;2022-08-04T00:49:48;10.33;;;5.60;;
69334;SDS011;56477;52.742;15.242;2022-08-04T01:00:50;8.50;;;5.80;;
69334;SDS011;56477;52.742;15.242;2022-08-04T01:03:48;7.10;;;5.10;;
69334;SDS011;56477;52.742;15.242;2022-08-04T01:16:52;8.13;;;5.35;;
69334;SDS011;56477;52.742;15.242;2022-08-04T01:19:33;7.40;;;5.97;;
69334;SDS011;56477;52.742;15.242;2022-08-04T01:25:43;6.43;;;5.28;;
69334;SDS011;56477;52.742;15.242;2022-08-04T01:30:44;7.85;;;5.78;;
69334;SDS011;56477;52.742;15.242;2022-08-04T01:33:13;8.10;;;5.53;;
69334;SDS011;56477;52.742;15.242;2022-08-04T01:41:03;7.68;;;5.85;;
69334;SDS011;56477;52.742;15.242;2022-08-04T01:43:42;8.00;;;5.72;;
69334;SDS011;56477;52.742;15.242;2022-08-04T01:46:10;7.88;;;6.00;;
69334;SDS011;56477;52.742;15.242;2022-08-04T01:48:43;13.03;;;5.90;;
69334;SDS011;56477;52.742;15.242;2022-08-04T01:51:10;7.50;;;5.50;;
69334;SDS011;56477;52.742;15.242;2022-08-04T01:53:38;7.88;;;5.97;;
69334;SDS011;56477;52.742;15.242;2022-08-04T01:56:08;9.65;;;5.50;;
69334;SDS011;56477;52.742;15.242;2022-08-04T01:58:35;7.03;;;5.72;;
69334;SDS011;56477;52.742;15.242;2022-08-04T02:01:07;6.33;;;5.50;;
69334;SDS011;56477;52.742;15.242;2022-08-04T02:03:36;11.77;;;6.17;;
69334;SDS011;56477;52.742;15.242;2022-08-04T02:09:16;6.40;;;5.68;;
69334;SDS011;56477;52.742;15.242;2022-08-04T02:17:51;8.87;;;6.13;;
69334;SDS011;56477;52.742;15.242;2022-08-04T02:20:34;8.13;;;5.97;;
69334;SDS011;56477;52.742;15.242;2022-08-04T02:23:50;10.45;;;5.90;;
69334;SDS011;56477;52.742;15.242;2022-08-04T02:26:03;7.30;;;5.63;;
69334;SDS011;56477;52.742;15.242;2022-08-04T02:31:15;8.77;;;6.22;;
69334;SDS011;56477;52.742;15.242;2022-08-04T02:33:55;9.20;;;5.60;;
69334;SDS011;56477;52.742;15.242;2022-08-04T02:36:34;6.70;;;5.70;;
69334;SDS011;56477;52.742;15.242;2022-08-04T02:39:04;8.55;;;6.10;;
69334;SDS011;56477;52.742;15.242;2022-08-04T02:41:32;7.90;;;6.80;;
69334;SDS011;56477;52.742;15.242;2022-08-04T02:44:03;10.25;;;6.70;;
69334;SDS011;56477;52.742;15.242;2022-08-04T02:46:30;7.90;;;6.20;;
69334;SDS011;56477;52.742;15.242;2022-08-04T02:48:58;8.67;;;5.83;;
69334;SDS011;56477;52.742;15.242;2022-08-04T02:51:40;7.20;;;6.25;;
69334;SDS011;56477;52.742;15.242;2022-08-04T02:54:08;7.78;;;6.13;;
69334;SDS011;56477;52.742;15.242;2022-08-04T02:56:34;8.88;;;6.25;;
69334;SDS011;56477;52.742;15.242;2022-08-04T02:59:03;9.00;;;6.43;;
69334;SDS011;56477;52.742;15.242;2022-08-04T03:01:33;8.53;;;6.30;;
69334;SDS011;56477;52.742;15.242;2022-08-04T03:07:05;8.43;;;6.60;;
69334;SDS011;56477;52.742;15.242;2022-08-04T03:27:10;10.95;;;6.30;;
69334;SDS011;56477;52.742;15.242;2022-08-04T03:30:05;9.10;;;6.63;;
69334;SDS011;56477;52.742;15.242;2022-08-04T03:41:34;8.48;;;6.80;;
69334;SDS011;56477;52.742;15.242;2022-08-04T03:56:11;8.70;;;6.97;;
69334;SDS011;56477;52.742;15.242;2022-08-04T04:06:48;10.27;;;7.50;;
69334;SDS011;56477;52.742;15.242;2022-08-04T04:12:57;11.52;;;7.55;;
69334;SDS011;56477;52.742;15.242;2022-08-04T04:24:05;9.40;;;6.70;;
69334;SDS011;56477;52.742;15.242;2022-08-04T04:26:56;10.23;;;7.03;;
69334;SDS011;56477;52.742;15.242;2022-08-04T04:37:51;8.10;;;6.73;;
69334;SDS011;56477;52.742;15.242;2022-08-04T04:45:46;8.32;;;6.85;;
69334;SDS011;56477;52.742;15.242;2022-08-04T04:56:43;9.23;;;7.43;;
69334;SDS011;56477;52.742;15.242;2022-08-04T04:59:14;10.02;;;8.07;;
69334;SDS011;56477;52.742;15.242;2022-08-04T05:15:26;9.07;;;7.00;;
69334;SDS011;56477;52.742;15.242;2022-08-04T05:17:56;13.80;;;7.40;;
69334;SDS011;56477;52.742;15.242;2022-08-04T05:20:26;7.43;;;6.63;;
69334;SDS011;56477;52.742;15.242;2022-08-04T05:22:59;8.53;;;6.97;;
69334;SDS011;56477;52.742;15.242;2022-08-04T05:25:34;8.63;;;7.22;;
69334;SDS011;56477;52.742;15.242;2022-08-04T05:28:09;8.38;;;7.32;;
69334;SDS011;56477;52.742;15.242;2022-08-04T05:31:02;10.48;;;7.28;;
69334;SDS011;56477;52.742;15.242;2022-08-04T05:33:38;12.80;;;8.27;;
69334;SDS011;56477;52.742;15.242;2022-08-04T05:36:09;9.90;;;7.23;;
69334;SDS011;56477;52.742;15.242;2022-08-04T05:38:40;8.68;;;7.78;;
69334;SDS011;56477;52.742;15.242;2022-08-04T05:41:08;9.02;;;7.65;;
69334;SDS011;56477;52.742;15.242;2022-08-04T05:43:36;11.00;;;7.32;;
69334;SDS011;56477;52.742;15.242;2022-08-04T05:46:07;9.23;;;7.53;;
69334;SDS011;56477;52.742;15.242;2022-08-04T05:48:34;12.10;;;8.10;;
69334;SDS011;56477;52.742;15.242;2022-08-04T05:51:02;9.38;;;7.18;;
69334;SDS011;56477;52.742;15.242;2022-08-04T05:53:30;9.20;;;6.75;;
69334;SDS011;56477;52.742;15.242;2022-08-04T05:55:57;7.82;;;7.00;;
69334;SDS011;56477;52.742;15.242;2022-08-04T05:58:25;9.52;;;7.32;;
69334;SDS011;56477;52.742;15.242;2022-08-04T06:00:55;9.73;;;7.83;;
69334;SDS011;56477;52.742;15.242;2022-08-04T06:03:26;11.60;;;7.90;;
69334;SDS011;56477;52.742;15.242;2022-08-04T06:05:54;10.73;;;6.82;;
69334;SDS011;56477;52.742;15.242;2022-08-04T06:08:22;12.10;;;7.35;;
69334;SDS011;56477;52.742;15.242;2022-08-04T06:10:48;10.85;;;7.57;;
69334;SDS011;56477;52.742;15.242;2022-08-04T06:13:16;10.77;;;7.63;;
69334;SDS011;56477;52.742;15.242;2022-08-04T06:15:45;11.63;;;7.97;;
69334;SDS011;56477;52.742;15.242;2022-08-04T06:18:14;10.23;;;7.30;;
69334;SDS011;56477;52.742;15.242;2022-08-04T06:20:40;9.88;;;7.00;;
69334;SDS011;56477;52.742;15.242;2022-08-04T06:23:12;11.68;;;7.78;;
69334;SDS011;56477;52.742;15.242;2022-08-04T06:25:45;9.20;;;7.70;;
69334;SDS011;56477;52.742;15.242;2022-08-04T06:28:13;8.03;;;7.03;;
69334;SDS011;56477;52.742;15.242;2022-08-04T06:30:40;12.07;;;7.77;;
69334;SDS011;56477;52.742;15.242;2022-08-04T06:33:12;12.10;;;7.60;;
69334;SDS011;56477;52.742;15.242;2022-08-04T06:35:50;10.20;;;8.20;;
69334;SDS011;56477;52.742;15.242;2022-08-04T06:38:29;14.40;;;7.80;;
69334;SDS011;56477;52.742;15.242;2022-08-04T06:40:56;11.45;;;7.10;;
69334;SDS011;56477;52.742;15.242;2022-08-04T06:43:25;12.27;;;8.13;;
69334;SDS011;56477;52.742;15.242;2022-08-04T06:45:53;8.80;;;6.90;;
69334;SDS011;56477;52.742;15.242;2022-08-04T06:48:21;9.63;;;7.50;;
69334;SDS011;56477;52.742;15.242;2022-08-04T06:50:49;9.57;;;7.78;;
69334;SDS011;56477;52.742;15.242;2022-08-04T06:53:16;14.38;;;8.60;;
69334;SDS011;56477;52.742;15.242;2022-08-04T06:55:44;12.68;;;7.00;;
69334;SDS011;56477;52.742;15.242;2022-08-04T06:58:11;8.67;;;7.37;;
69334;SDS011;56477;52.742;15.242;2022-08-04T07:00:38;10.07;;;7.63;;
69334;SDS011;56477;52.742;15.242;2022-08-04T07:03:06;11.88;;;7.72;;
69334;SDS011;56477;52.742;15.242;2022-08-04T07:05:33;16.73;;;6.80;;
69334;SDS011;56477;52.742;15.242;2022-08-04T07:08:00;8.88;;;6.90;;
69334;SDS011;56477;52.742;15.242;2022-08-04T07:10:27;9.27;;;6.93;;
69334;SDS011;56477;52.742;15.242;2022-08-04T07:12:57;7.60;;;6.80;;
69334;SDS011;56477;52.742;15.242;2022-08-04T07:15:24;8.15;;;6.35;;
69334;SDS011;56477;52.742;15.242;2022-08-04T07:17:51;10.25;;;6.70;;
69334;SDS011;56477;52.742;15.242;2022-08-04T07:20:17;8.98;;;6.72;;
69334;SDS011;56477;52.742;15.242;2022-08-04T07:22:43;9.02;;;6.70;;
69334;SDS011;56477;52.742;15.242;2022-08-04T07:25:12;7.30;;;6.25;;
69334;SDS011;56477;52.742;15.242;2022-08-04T07:27:39;7.07;;;6.13;;
69334;SDS011;56477;52.742;15.242;2022-08-04T07:30:07;9.10;;;6.50;;
69334;SDS011;56477;52.742;15.242;2022-08-04T07:32:34;7.28;;;6.55;;
69334;SDS011;56477;52.742;15.242;2022-08-04T07:35:01;6.68;;;5.85;;
69334;SDS011;56477;52.742;15.242;2022-08-04T07:37:29;7.53;;;6.45;;
69334;SDS011;56477;52.742;15.242;2022-08-04T07:39:55;9.05;;;6.10;;
69334;SDS011;56477;52.742;15.242;2022-08-04T07:42:21;9.50;;;7.15;;
69334;SDS011;56477;52.742;15.242;2022-08-04T07:44:47;7.63;;;6.20;;
69334;SDS011;56477;52.742;15.242;2022-08-04T07:47:13;6.87;;;5.77;;
69334;SDS011;56477;52.742;15.242;2022-08-04T07:49:42;6.33;;;5.77;;
69334;SDS011;56477;52.742;15.242;2022-08-04T07:52:08;7.95;;;5.47;;
69334;SDS011;56477;52.742;15.242;2022-08-04T07:54:34;8.20;;;5.70;;
69334;SDS011;56477;52.742;15.242;2022-08-04T07:57:01;12.30;;;5.70;;
69334;SDS011;56477;52.742;15.242;2022-08-04T07:59:27;7.43;;;5.28;;
69334;SDS011;56477;52.742;15.242;2022-08-04T08:01:53;7.15;;;5.30;;
69334;SDS011;56477;52.742;15.242;2022-08-04T08:04:27;6.10;;;5.05;;
69334;SDS011;56477;52.742;15.242;2022-08-04T08:06:53;5.40;;;4.90;;
69334;SDS011;56477;52.742;15.242;2022-08-04T08:09:22;7.00;;;5.07;;
69334;SDS011;56477;52.742;15.242;2022-08-04T08:11:49;7.50;;;4.63;;
69334;SDS011;56477;52.742;15.242;2022-08-04T08:14:16;6.07;;;5.03;;
69334;SDS011;56477;52.742;15.242;2022-08-04T08:16:43;6.03;;;4.28;;
69334;SDS011;56477;52.742;15.242;2022-08-04T08:19:09;5.18;;;4.22;;
69334;SDS011;56477;52.742;15.242;2022-08-04T08:21:35;6.10;;;4.78;;
69334;SDS011;56477;52.742;15.242;2022-08-04T08:24:03;5.30;;;4.80;;
69334;SDS011;56477;52.742;15.242;2022-08-04T08:26:29;7.93;;;4.63;;
69334;SDS011;56477;52.742;15.242;2022-08-04T08:28:55;5.23;;;3.80;;
69334;SDS011;56477;52.742;15.242;2022-08-04T08:31:21;6.00;;;4.10;;
69334;SDS011;56477;52.742;15.242;2022-08-04T08:33:48;5.38;;;4.22;;
69334;SDS011;56477;52.742;15.242;2022-08-04T09:00:19;6.35;;;3.90;;
69334;SDS011;56477;52.742;15.242;2022-08-04T09:06:03;6.80;;;3.60;;
69334;SDS011;56477;52.742;15.242;2022-08-04T09:09:11;6.75;;;3.58;;
69334;SDS011;56477;52.742;15.242;2022-08-04T09:11:55;5.68;;;3.63;;
69334;SDS011;56477;52.742;15.242;2022-08-04T09:17:36;7.25;;;3.30;;
69334;SDS011;56477;52.742;15.242;2022-08-04T09:23:12;4.30;;;3.40;;
69334;SDS011;56477;52.742;15.242;2022-08-04T09:28:28;4.35;;;2.90;;
69334;SDS011;56477;52.742;15.242;2022-08-04T09:31:06;7.25;;;3.25;;
69334;SDS011;56477;52.742;15.242;2022-08-04T09:36:06;4.05;;;3.47;;
69334;SDS011;56477;52.742;15.242;2022-08-04T09:44:24;4.50;;;3.03;;
69334;SDS011;56477;52.742;15.242;2022-08-04T10:00:43;7.03;;;3.63;;
69334;SDS011;56477;52.742;15.242;2022-08-04T10:03:12;4.20;;;3.17;;
69334;SDS011;56477;52.742;15.242;2022-08-04T10:11:32;3.80;;;3.42;;
69334;SDS011;56477;52.742;15.242;2022-08-04T10:17:20;4.40;;;3.07;;
69334;SDS011;56477;52.742;15.242;2022-08-04T10:25:51;4.50;;;3.15;;
69334;SDS011;56477;52.742;15.242;2022-08-04T10:28:48;3.92;;;3.53;;
69334;SDS011;56477;52.742;15.242;2022-08-04T10:31:21;4.53;;;3.38;;
69334;SDS011;56477;52.742;15.242;2022-08-04T10:34:00;4.90;;;3.28;;
69334;SDS011;56477;52.742;15.242;2022-08-04T10:36:38;3.72;;;3.13;;
69334;SDS011;56477;52.742;15.242;2022-08-04T10:39:13;5.83;;;3.73;;
69334;SDS011;56477;52.742;15.242;2022-08-04T10:41:49;3.80;;;3.33;;
69334;SDS011;56477;52.742;15.242;2022-08-04T10:46:56;4.65;;;3.40;;
69334;SDS011;56477;52.742;15.242;2022-08-04T10:52:35;6.32;;;3.40;;
69334;SDS011;56477;52.742;15.242;2022-08-04T10:55:09;4.10;;;3.28;;
69334;SDS011;56477;52.742;15.242;2022-08-04T10:57:54;4.10;;;3.53;;
69334;SDS011;56477;52.742;15.242;2022-08-04T11:00:25;5.17;;;4.00;;
69334;SDS011;56477;52.742;15.242;2022-08-04T11:08:20;4.78;;;4.35;;
69334;SDS011;56477;52.742;15.242;2022-08-04T11:13:20;4.78;;;3.80;;
69334;SDS011;56477;52.742;15.242;2022-08-04T11:15:52;7.33;;;4.33;;
69334;SDS011;56477;52.742;15.242;2022-08-04T11:18:34;5.87;;;4.27;;
69334;SDS011;56477;52.742;15.242;2022-08-04T11:23:37;4.18;;;3.78;;
69334;SDS011;56477;52.742;15.242;2022-08-04T11:26:45;5.80;;;3.78;;
69334;SDS011;56477;52.742;15.242;2022-08-04T11:31:56;4.50;;;4.10;;
69334;SDS011;56477;52.742;15.242;2022-08-04T11:34:25;4.33;;;3.60;;
69334;SDS011;56477;52.742;15.242;2022-08-04T11:37:00;4.35;;;3.38;;
69334;SDS011;56477;52.742;15.242;2022-08-04T11:42:28;4.78;;;4.18;;
69334;SDS011;56477;52.742;15.242;2022-08-04T11:45:01;4.60;;;3.70;;
69334;SDS011;56477;52.742;15.242;2022-08-04T11:48:15;4.63;;;3.40;;
69334;SDS011;56477;52.742;15.242;2022-08-04T11:50:32;4.22;;;3.83;;
69334;SDS011;56477;52.742;15.242;2022-08-04T11:53:06;5.95;;;4.20;;
69334;SDS011;56477;52.742;15.242;2022-08-04T11:55:34;6.90;;;3.45;;
69334;SDS011;56477;52.742;15.242;2022-08-04T11:58:01;5.43;;;4.15;;
69334;SDS011;56477;52.742;15.242;2022-08-04T12:00:28;4.63;;;3.50;;
69334;SDS011;56477;52.742;15.242;2022-08-04T12:17:27;6.07;;;3.87;;
69334;SDS011;56477;52.742;15.242;2022-08-04T12:20:00;4.97;;;4.57;;
69334;SDS011;56477;52.742;15.242;2022-08-04T12:22:31;4.50;;;3.83;;
69334;SDS011;56477;52.742;15.242;2022-08-04T12:25:02;5.00;;;3.55;;
69334;SDS011;56477;52.742;15.242;2022-08-04T12:27:34;4.07;;;3.67;;
69334;SDS011;56477;52.742;15.242;2022-08-04T12:30:02;4.78;;;3.60;;
69334;SDS011;56477;52.742;15.242;2022-08-04T12:35:34;4.60;;;3.30;;
69334;SDS011;56477;52.742;15.242;2022-08-04T12:38:07;4.38;;;3.85;;
69334;SDS011;56477;52.742;15.242;2022-08-04T12:40:40;6.15;;;3.72;;
69334;SDS011;56477;52.742;15.242;2022-08-04T12:43:16;4.78;;;4.38;;
69334;SDS011;56477;52.742;15.242;2022-08-04T12:45:51;4.10;;;3.73;;
69334;SDS011;56477;52.742;15.242;2022-08-04T12:48:20;4.10;;;3.63;;
69334;SDS011;56477;52.742;15.242;2022-08-04T12:50:49;4.75;;;4.35;;
69334;SDS011;56477;52.742;15.242;2022-08-04T12:53:17;5.32;;;3.75;;
69334;SDS011;56477;52.742;15.242;2022-08-04T12:55:46;4.57;;;4.18;;
69334;SDS011;56477;52.742;15.242;2022-08-04T12:58:16;4.43;;;3.83;;
69334;SDS011;56477;52.742;15.242;2022-08-04T13:00:59;6.88;;;4.53;;
69334;SDS011;56477;52.742;15.242;2022-08-04T13:03:44;3.67;;;3.38;;
69334;SDS011;56477;52.742;15.242;2022-08-04T13:06:25;4.90;;;4.43;;
69334;SDS011;56477;52.742;15.242;2022-08-04T13:08:54;4.20;;;3.80;;
69334;SDS011;56477;52.742;15.242;2022-08-04T13:11:29;4.47;;;4.07;;
69334;SDS011;56477;52.742;15.242;2022-08-04T13:14:00;4.30;;;3.80;;
69334;SDS011;56477;52.742;15.242;2022-08-04T13:16:28;5.20;;;4.70;;
69334;SDS011;56477;52.742;15.242;2022-08-04T13:18:55;4.80;;;4.40;;
69334;SDS011;56477;52.742;15.242;2022-08-04T13:21:23;4.82;;;4.20;;
69334;SDS011;56477;52.742;15.242;2022-08-04T13:23:51;5.38;;;4.88;;
69334;SDS011;56477;52.742;15.242;2022-08-04T13:26:23;7.17;;;4.50;;
69334;SDS011;56477;52.742;15.242;2022-08-04T13:28:51;4.10;;;3.80;;
69334;SDS011;56477;52.742;15.242;2022-08-04T13:31:22;4.78;;;4.38;;
69334;SDS011;56477;52.742;15.242;2022-08-04T13:33:52;4.28;;;3.88;;
69334;SDS011;56477;52.742;15.242;2022-08-04T13:36:23;4.85;;;4.45;;
69334;SDS011;56477;52.742;15.242;2022-08-04T13:38:51;4.57;;;4.17;;
69334;SDS011;56477;52.742;15.242;2022-08-04T13:41:19;4.05;;;3.75;;
69334;SDS011;56477;52.742;15.242;2022-08-04T13:43:47;4.00;;;3.60;;
69334;SDS011;56477;52.742;15.242;2022-08-04T13:46:19;5.20;;;3.58;;
69334;SDS011;56477;52.742;15.242;2022-08-04T13:48:50;4.65;;;4.25;;
69334;SDS011;56477;52.742;15.242;2022-08-04T13:51:17;5.77;;;3.70;;
69334;SDS011;56477;52.742;15.242;2022-08-04T13:53:53;4.90;;;4.13;;
69334;SDS011;56477;52.742;15.242;2022-08-04T13:56:22;5.15;;;4.20;;
69334;SDS011;56477;52.742;15.242;2022-08-04T13:58:54;5.68;;;5.18;;
69334;SDS011;56477;52.742;15.242;2022-08-04T14:01:22;5.68;;;4.40;;
69334;SDS011;56477;52.742;15.242;2022-08-04T14:03:55;5.63;;;4.22;;
69334;SDS011;56477;52.742;15.242;2022-08-04T14:09:01;4.87;;;4.00;;
69334;SDS011;56477;52.742;15.242;2022-08-04T14:11:51;6.07;;;4.82;;
69334;SDS011;56477;52.742;15.242;2022-08-04T14:14:29;6.97;;;4.45;;
69334;SDS011;56477;52.742;15.242;2022-08-04T14:17:07;4.82;;;4.25;;
69334;SDS011;56477;52.742;15.242;2022-08-04T14:27:50;4.70;;;4.30;;
69334;SDS011;56477;52.742;15.242;2022-08-04T14:30:28;6.72;;;4.10;;
69334;SDS011;56477;52.742;15.242;2022-08-04T14:33:16;4.68;;;4.28;;
69334;SDS011;56477;52.742;15.242;2022-08-04T14:35:43;5.33;;;3.67;;
69334;SDS011;56477;52.742;15.242;2022-08-04T14:38:22;4.17;;;3.73;;
69334;SDS011;56477;52.742;15.242;2022-08-04T14:40:48;5.63;;;3.85;;
69334;SDS011;56477;52.742;15.242;2022-08-04T14:43:15;4.70;;;3.95;;
69334;SDS011;56477;52.742;15.242;2022-08-04T14:45:43;4.35;;;3.95;;
69334;SDS011;56477;52.742;15.242;2022-08-04T14:48:16;4.00;;;3.63;;
69334;SDS011;56477;52.742;15.242;2022-08-04T14:50:43;3.93;;;3.23;;
69334;SDS011;56477;52.742;15.242;2022-08-04T14:53:12;4.45;;;3.92;;
69334;SDS011;56477;52.742;15.242;2022-08-04T14:55:51;5.00;;;3.40;;
69334;SDS011;56477;52.742;15.242;2022-08-04T14:58:25;4.20;;;3.30;;
69334;SDS011;56477;52.742;15.242;2022-08-04T15:01:01;3.83;;;3.03;;
69334;SDS011;56477;52.742;15.242;2022-08-04T15:03:29;3.83;;;3.45;;
69334;SDS011;56477;52.742;15.242;2022-08-04T15:05:57;5.50;;;3.47;;
69334;SDS011;56477;52.742;15.242;2022-08-04T15:08:25;4.03;;;3.40;;
69334;SDS011;56477;52.742;15.242;2022-08-04T15:10:53;4.47;;;3.97;;
69334;SDS011;56477;52.742;15.242;2022-08-04T15:13:26;4.93;;;3.90;;
69334;SDS011;56477;52.742;15.242;2022-08-04T15:15:52;4.57;;;3.03;;
69334;SDS011;56477;52.742;15.242;2022-08-04T15:18:18;5.23;;;3.50;;
69334;SDS011;56477;52.742;15.242;2022-08-04T15:20:45;4.93;;;3.73;;
69334;SDS011;56477;52.742;15.242;2022-08-04T15:23:11;5.57;;;3.85;;
69334;SDS011;56477;52.742;15.242;2022-08-04T15:25:45;3.95;;;3.30;;
69334;SDS011;56477;52.742;15.242;2022-08-04T15:28:14;4.80;;;3.80;;
69334;SDS011;56477;52.742;15.242;2022-08-04T15:30:43;5.13;;;3.55;;
69334;SDS011;56477;52.742;15.242;2022-08-04T15:33:11;4.38;;;3.97;;
69334;SDS011;56477;52.742;15.242;2022-08-04T15:39:02;4.78;;;3.42;;
69334;SDS011;56477;52.742;15.242;2022-08-04T15:41:36;5.00;;;3.60;;
69334;SDS011;56477;52.742;15.242;2022-08-04T15:44:56;4.57;;;3.40;;
69334;SDS011;56477;52.742;15.242;2022-08-04T15:47:14;3.88;;;3.30;;
69334;SDS011;56477;52.742;15.242;2022-08-04T15:49:41;3.92;;;3.53;;
69334;SDS011;56477;52.742;15.242;2022-08-04T15:52:12;4.47;;;3.05;;
69334;SDS011;56477;52.742;15.242;2022-08-04T15:54:42;3.50;;;3.10;;
69334;SDS011;56477;52.742;15.242;2022-08-04T15:57:08;5.43;;;3.20;;
69334;SDS011;56477;52.742;15.242;2022-08-04T16:02:55;4.53;;;3.47;;
69334;SDS011;56477;52.742;15.242;2022-08-04T16:10:37;4.47;;;3.33;;
69334;SDS011;56477;52.742;15.242;2022-08-04T16:13:21;4.32;;;3.30;;
69334;SDS011;56477;52.742;15.242;2022-08-04T16:20:53;4.25;;;3.00;;
69334;SDS011;56477;52.742;15.242;2022-08-04T16:32:08;4.80;;;3.40;;
69334;SDS011;56477;52.742;15.242;2022-08-04T16:37:10;6.15;;;4.00;;
69334;SDS011;56477;52.742;15.242;2022-08-04T16:39:37;5.65;;;3.47;;
69334;SDS011;56477;52.742;15.242;2022-08-04T16:44:59;4.33;;;3.23;;
69334;SDS011;56477;52.742;15.242;2022-08-04T16:50:13;9.23;;;3.97;;
69334;SDS011;56477;52.742;15.242;2022-08-04T16:52:49;5.78;;;4.05;;
69334;SDS011;56477;52.742;15.242;2022-08-04T16:55:20;5.25;;;4.35;;
69334;SDS011;56477;52.742;15.242;2022-08-04T16:57:49;5.77;;;4.40;;
69334;SDS011;56477;52.742;15.242;2022-08-04T17:00:16;4.73;;;4.23;;
69334;SDS011;56477;52.742;15.242;2022-08-04T17:02:51;4.50;;;3.50;;
69334;SDS011;56477;52.742;15.242;2022-08-04T17:05:21;3.97;;;3.25;;
69334;SDS011;56477;52.742;15.242;2022-08-04T17:07:49;4.53;;;3.70;;
69334;SDS011;56477;52.742;15.242;2022-08-04T17:10:16;7.35;;;3.40;;
69334;SDS011;56477;52.742;15.242;2022-08-04T17:12:42;8.23;;;4.20;;
69334;SDS011;56477;52.742;15.242;2022-08-04T17:15:29;4.97;;;3.77;;
69334;SDS011;56477;52.742;15.242;2022-08-04T17:18:13;6.28;;;4.18;;
69334;SDS011;56477;52.742;15.242;2022-08-04T17:20:44;7.70;;;3.70;;
69334;SDS011;56477;52.742;15.242;2022-08-04T17:23:53;5.55;;;4.03;;
69334;SDS011;56477;52.742;15.242;2022-08-04T17:26:15;4.38;;;3.78;;
69334;SDS011;56477;52.742;15.242;2022-08-04T17:28:46;5.05;;;4.30;;
69334;SDS011;56477;52.742;15.242;2022-08-04T17:31:13;4.53;;;3.67;;
69334;SDS011;56477;52.742;15.242;2022-08-04T17:33:42;4.10;;;3.67;;
69334;SDS011;56477;52.742;15.242;2022-08-04T17:36:14;4.22;;;3.83;;
69334;SDS011;56477;52.742;15.242;2022-08-04T17:38:42;4.85;;;3.75;;
69334;SDS011;56477;52.742;15.242;2022-08-04T17:41:11;6.28;;;4.22;;
69334;SDS011;56477;52.742;15.242;2022-08-04T17:48:59;7.83;;;4.33;;
69334;SDS011;56477;52.742;15.242;2022-08-04T17:51:49;7.30;;;4.05;;
69334;SDS011;56477;52.742;15.242;2022-08-04T17:54:19;6.05;;;4.35;;
69334;SDS011;56477;52.742;15.242;2022-08-04T17:57:01;7.07;;;4.30;;
69334;SDS011;56477;52.742;15.242;2022-08-04T17:59:41;6.45;;;4.65;;
69334;SDS011;56477;52.742;15.242;2022-08-04T18:02:08;7.53;;;4.32;;
69334;SDS011;56477;52.742;15.242;2022-08-04T18:04:38;6.32;;;4.63;;
69334;SDS011;56477;52.742;15.242;2022-08-04T18:09:36;5.60;;;4.80;;
69334;SDS011;56477;52.742;15.242;2022-08-04T18:12:08;5.68;;;4.03;;
69334;SDS011;56477;52.742;15.242;2022-08-04T18:14:41;9.93;;;5.53;;
69334;SDS011;56477;52.742;15.242;2022-08-04T18:17:09;5.68;;;4.55;;
69334;SDS011;56477;52.742;15.242;2022-08-04T18:19:36;8.60;;;4.72;;
69334;SDS011;56477;52.742;15.242;2022-08-04T18:22:04;7.20;;;4.38;;
69334;SDS011;56477;52.742;15.242;2022-08-04T18:24:31;5.47;;;4.55;;
69334;SDS011;56477;52.742;15.242;2022-08-04T18:26:58;5.00;;;4.30;;
69334;SDS011;56477;52.742;15.242;2022-08-04T18:29:24;6.70;;;4.72;;
69334;SDS011;56477;52.742;15.242;2022-08-04T18:31:50;7.17;;;4.40;;
69334;SDS011;56477;52.742;15.242;2022-08-04T18:34:16;7.60;;;4.93;;
69334;SDS011;56477;52.742;15.242;2022-08-04T18:36:42;6.53;;;4.90;;
69334;SDS011;56477;52.742;15.242;2022-08-04T18:39:08;6.18;;;5.10;;
69334;SDS011;56477;52.742;15.242;2022-08-04T18:41:35;8.30;;;4.82;;
69334;SDS011;56477;52.742;15.242;2022-08-04T18:44:02;6.95;;;5.32;;
69334;SDS011;56477;52.742;15.242;2022-08-04T18:46:28;7.83;;;4.80;;
69334;SDS011;56477;52.742;15.242;2022-08-04T18:48:53;10.60;;;4.93;;
69334;SDS011;56477;52.742;15.242;2022-08-04T18:51:20;7.82;;;4.97;;
69334;SDS011;56477;52.742;15.242;2022-08-04T18:53:46;10.15;;;5.50;;
69334;SDS011;56477;52.742;15.242;2022-08-04T18:56:13;9.20;;;5.00;;
69334;SDS011;56477;52.742;15.242;2022-08-04T18:58:40;9.10;;;5.93;;
69334;SDS011;56477;52.742;15.242;2022-08-04T19:01:07;6.70;;;5.17;;
69334;SDS011;56477;52.742;15.242;2022-08-04T19:03:34;9.87;;;5.17;;
69334;SDS011;56477;52.742;15.242;2022-08-04T19:06:00;9.00;;;4.75;;
69334;SDS011;56477;52.742;15.242;2022-08-04T19:08:28;5.80;;;5.20;;
69334;SDS011;56477;52.742;15.242;2022-08-04T19:10:54;6.68;;;5.70;;
69334;SDS011;56477;52.742;15.242;2022-08-04T19:13:21;7.38;;;5.10;;
69334;SDS011;56477;52.742;15.242;2022-08-04T19:15:47;7.15;;;5.35;;
69334;SDS011;56477;52.742;15.242;2022-08-04T19:18:13;9.07;;;7.73;;
69334;SDS011;56477;52.742;15.242;2022-08-04T19:20:39;8.60;;;5.82;;
69334;SDS011;56477;52.742;15.242;2022-08-04T19:23:05;9.48;;;5.28;;
69334;SDS011;56477;52.742;15.242;2022-08-04T19:25:30;12.75;;;6.10;;
69334;SDS011;56477;52.742;15.242;2022-08-04T19:27:56;7.82;;;6.28;;
69334;SDS011;56477;52.742;15.242;2022-08-04T19:30:22;10.33;;;5.90;;
69334;SDS011;56477;52.742;15.242;2022-08-04T19:32:48;8.25;;;6.13;;
69334;SDS011;56477;52.742;15.242;2022-08-04T19:35:14;8.88;;;5.78;;
69334;SDS011;56477;52.742;15.242;2022-08-04T19:37:40;8.85;;;5.55;;
69334;SDS011;56477;52.742;15.242;2022-08-04T19:40:07;12.83;;;5.83;;
69334;SDS011;56477;52.742;15.242;2022-08-04T19:42:34;7.63;;;5.90;;
69334;SDS011;56477;52.742;15.242;2022-08-04T19:45:00;7.75;;;6.00;;
69334;SDS011;56477;52.742;15.242;2022-08-04T19:47:26;7.57;;;6.43;;
69334;SDS011;56477;52.742;15.242;2022-08-04T19:49:52;8.97;;;6.57;;
69334;SDS011;56477;52.742;15.242;2022-08-04T19:52:18;10.00;;;6.07;;
69334;SDS011;56477;52.742;15.242;2022-08-04T19:54:44;7.93;;;6.35;;
69334;SDS011;56477;52.742;15.242;2022-08-04T19:57:10;8.80;;;6.20;;
69334;SDS011;56477;52.742;15.242;2022-08-04T19:59:36;9.38;;;6.95;;
69334;SDS011;56477;52.742;15.242;2022-08-04T20:02:02;10.87;;;8.67;;
69334;SDS011;56477;52.742;15.242;2022-08-04T20:04:28;8.18;;;6.80;;
69334;SDS011;56477;52.742;15.242;2022-08-04T20:06:54;8.65;;;6.80;;
69334;SDS011;56477;52.742;15.242;2022-08-04T20:09:20;7.63;;;6.00;;
69334;SDS011;56477;52.742;15.242;2022-08-04T20:11:46;10.03;;;5.90;;